Weather reports worldwide

Advertisment
Cerezo De Arriba, Spain (8143): temperature & dewpoint: 09.12.2019 18:00:00 - 15.12.2019 18:00:00 (CET)Cerezo De Arriba, Spain (8143): wind speed & gusts: 09.12.2019 18:00:00 - 15.12.2019 18:00:00 (CET)Cerezo De Arriba, Spain (8143): wind direction: 09.12.2019 18:00:00 - 15.12.2019 18:00:00 (CET)Cerezo De Arriba, Spain (8143): visibility: 09.12.2019 18:00:00 - 15.12.2019 18:00:00 (CET)Cerezo De Arriba, Spain (8143): sunshine duration: 09.12.2019 18:00:00 - 15.12.2019 18:00:00 (CET)Cerezo De Arriba, Spain (8143): precipitation: 09.12.2019 18:00:00 - 15.12.2019 18:00:00 (CET)
Date & Time tt [°C] td [°C] ff [km/h] ff [kn] fx [km/h] fx [kn] dd vv [km] sd [min] rr [mm]
15.12.2019 18:00:00 1,4 1,3 40 22 72 39 S 0,3 0 0,0
15.12.2019 17:00:00 1,8 1,1 36 19 64 35 S 1,2 0 0,0
15.12.2019 16:00:00 2,1 1,1 19 10 56 30 S 1,5 0 0,0
15.12.2019 15:00:00 4,6 0,2 11 6 46 25 WSW 20 45 0,0
15.12.2019 14:00:00 5,9 -2,0 15 8 52 28 SSE 20 52 0,0
15.12.2019 13:00:00 4,9 -0,7 15 8 40 22 SE 20 60 -
15.12.2019 12:00:00 4,3 -3,9 8 4 41 22 E 20 13 0,0
15.12.2019 11:00:00 1,1 -1,4 12 7 24 13 NNE 20 0 0,0
15.12.2019 10:00:00 0,7 -1,2 6 4 28 15 NNW 20 0 0,0
15.12.2019 09:00:00 0,7 -0,5 9 5 33 18 S 20 0 0,0
15.12.2019 08:00:00 0,3 0,0 15 8 28 15 S 20 0 0,0
15.12.2019 07:00:00 0,1 0,0 4 2 21 11 S 20 0 -
15.12.2019 06:00:00 0,5 0,4 10 5 21 11 SW 20 0 0,0
15.12.2019 05:00:00 0,6 0,4 7 4 21 11 S 18 0 0,0
15.12.2019 04:00:00 0,6 0,4 6 4 17 9 SW 20 0 0,0
15.12.2019 03:00:00 0,7 0,6 10 5 30 16 WSW 20 0 0,0
15.12.2019 02:00:00 0,9 0,9 9 5 28 15 S 20 0 0,0
15.12.2019 01:00:00 1,1 1,1 12 7 29 16 S 7 0 -
15.12.2019 00:00:00 1,1 1,1 9 5 34 19 SW 20 0 0,0
14.12.2019 23:00:00 1,0 0,9 10 5 40 22 SE 20 0 0,0
14.12.2019 22:00:00 1,0 0,9 9 5 33 18 N 20 0 0,0
14.12.2019 21:00:00 1,1 1,1 13 7 37 20 WSW 20 0 0,0
14.12.2019 20:00:00 1,4 1,3 9 5 47 25 WNW 20 0 0,0
14.12.2019 19:00:00 1,6 1,5 12 7 50 27 NNW 20 0 -
14.12.2019 18:00:00 1,1 1,1 12 7 43 23 ESE 20 0 0,0
14.12.2019 17:00:00 1,1 1,1 11 6 39 21 N 20 0 0,0
14.12.2019 16:00:00 1,3 1,1 11 6 36 19 WNW 20 0 0,0
14.12.2019 15:00:00 1,3 1,1 10 5 47 25 W 20 0 0,0
14.12.2019 14:00:00 1,0 1,1 14 7 35 19 W 20 0 0,0
14.12.2019 13:00:00 0,7 0,6 9 5 40 22 W 1,6 0 -
14.12.2019 12:00:00 0,4 0,4 9 5 36 19 E 0,4 0 0,0
14.12.2019 11:00:00 0,2 0,2 12 7 54 29 NE 0,2 0 0,0
14.12.2019 10:00:00 -0,1 -0,1 11 6 50 27 NE - 0 0,0
14.12.2019 09:00:00 0,0 0,0 15 8 49 26 WNW 0,2 0 0,0
14.12.2019 08:00:00 0,1 0,1 15 8 41 22 NW - 0 0,0
14.12.2019 07:00:00 0,5 0,4 14 8 61 33 W 0,2 0 -
14.12.2019 06:00:00 0,8 0,9 18 10 54 29 NW 0,1 0 0,0
14.12.2019 05:00:00 0,8 0,8 15 8 51 28 NE - 0 0,0
14.12.2019 04:00:00 0,7 0,7 14 8 48 26 SSW - 0 0,0
14.12.2019 03:00:00 0,9 0,9 18 10 60 32 N 0,8 0 0,0
14.12.2019 02:00:00 1,8 1,7 14 8 67 36 NNW 0,1 0 0,0
14.12.2019 01:00:00 1,8 1,7 13 7 58 31 NW 0,8 0 -
14.12.2019 00:00:00 1,9 1,7 20 11 57 31 S 0,4 0 0,2
13.12.2019 23:00:00 2,1 1,9 19 10 71 38 N 0,2 0 0,0
13.12.2019 22:00:00 2,7 2,5 20 11 67 36 ESE 0,2 0 0,0
13.12.2019 21:00:00 3,1 3,0 16 9 67 36 W 0,1 0 0,0
13.12.2019 20:00:00 3,4 3,2 22 12 77 41 SE 0,2 0 0,0
13.12.2019 19:00:00 3,7 3,6 20 11 76 41 N 0,1 0 -
13.12.2019 18:00:00 4,2 4,1 24 13 79 43 NNE 0,2 0 0,0
13.12.2019 17:00:00 4,5 4,3 26 14 80 43 N 0,1 0 0,0
13.12.2019 16:00:00 4,4 4,1 34 19 83 45 NNW 0,1 0 0,2
13.12.2019 15:00:00 4,4 4,1 30 16 78 42 N 0,2 0 0,0
13.12.2019 14:00:00 4,2 4,1 32 17 86 47 NNW 0,2 0 0,2
13.12.2019 13:00:00 3,9 3,8 25 14 83 45 N 0,2 0 -
13.12.2019 12:00:00 3,5 3,4 22 12 70 38 ENE 0,2 0 0,0
13.12.2019 11:00:00 3,0 2,9 21 12 77 41 NE 0,2 0 0,0
13.12.2019 10:00:00 2,6 2,5 21 11 77 42 ENE 0,2 0 0,2
13.12.2019 09:00:00 2,5 2,3 24 13 80 43 E 0,3 0 0,0
13.12.2019 08:00:00 3,0 2,9 27 14 99 53 NNE 0,2 0 0,0
13.12.2019 07:00:00 3,5 3,4 33 18 86 46 NNW 0,3 0 -
13.12.2019 06:00:00 3,7 3,6 24 13 70 38 ENE 0,2 0 0,2
13.12.2019 05:00:00 4,2 3,9 20 11 78 42 NE 0,2 0 1,8
13.12.2019 04:00:00 4,4 4,1 27 14 80 43 NE 0,3 0 2,8
13.12.2019 03:00:00 4,4 4,1 18 10 66 35 ENE 0,2 0 1,4
13.12.2019 02:00:00 4,4 4,1 23 13 74 40 N 0,2 0 0,6
13.12.2019 01:00:00 4,1 3,8 19 11 57 31 ESE 0,2 0 -
13.12.2019 00:00:00 4,1 3,8 21 11 58 31 N 0,1 0 3,2
12.12.2019 23:00:00 3,8 3,6 18 10 73 39 E 0,5 0 3,8
12.12.2019 22:00:00 3,4 3,2 22 12 61 33 NE 0,2 0 3,4
12.12.2019 21:00:00 3,0 2,9 23 12 64 34 N 0,2 0 5,0
12.12.2019 20:00:00 2,3 2,1 23 12 86 47 ENE 0,8 0 5,0
12.12.2019 19:00:00 1,6 1,5 21 11 82 45 N 0,3 0 -
12.12.2019 18:00:00 0,6 0,4 26 14 94 51 N 0,2 0 3,8
12.12.2019 17:00:00 0,0 0,0 37 20 125 67 NW 0,3 0 3,2
12.12.2019 16:00:00 -0,1 -0,3 24 13 117 63 WSW 0,3 0 3,2
12.12.2019 15:00:00 -0,2 -0,3 27 15 89 48 NW 1,0 0 1,6
12.12.2019 14:00:00 -0,7 -0,7 25 14 85 46 W 0,8 0 1,6
12.12.2019 13:00:00 -0,8 -1,0 23 13 78 42 ESE 1,1 0 -
12.12.2019 12:00:00 -0,9 -1,0 19 10 86 47 NNE 1,3 0 1,2
12.12.2019 11:00:00 -1,2 -1,4 20 11 74 40 NE 0,4 0 1,2
12.12.2019 10:00:00 -1,1 -1,2 16 9 67 36 NNE 0,3 0 0,0
12.12.2019 09:00:00 -1,1 -1,2 21 11 67 36 ENE 0,4 0 0,0
12.12.2019 08:00:00 -1,5 -1,7 14 8 61 33 ESE 0,2 0 0,0
12.12.2019 07:00:00 -1,8 -2,0 14 7 55 30 ENE 0,2 0 -
12.12.2019 06:00:00 -1,9 -2,0 15 8 53 29 WSW 0,1 0 0,0
12.12.2019 05:00:00 -2,1 -2,2 14 8 46 25 ESE 0,1 0 0,0
12.12.2019 04:00:00 -2,3 -2,5 14 7 48 26 ENE 0,1 0 0,0
12.12.2019 03:00:00 -2,5 -2,7 16 8 51 28 E 0,1 0 0,0
12.12.2019 02:00:00 -2,6 -2,7 19 10 68 37 N 0,1 0 0,0
12.12.2019 01:00:00 -2,5 -2,7 19 10 46 25 NNE 0,7 0 -
12.12.2019 00:00:00 -2,6 -2,7 16 8 60 32 E 0,1 0 0,0
11.12.2019 23:00:00 -2,6 -2,7 19 11 64 35 ENE 0,8 0 0,0
11.12.2019 22:00:00 -2,6 -2,7 16 9 57 31 E 0,1 0 0,0
11.12.2019 21:00:00 -2,6 -2,7 19 10 48 26 E 0,2 0 0,0
11.12.2019 20:00:00 -2,3 -2,5 20 11 69 37 NNW 0,1 0 0,0
11.12.2019 19:00:00 -3,0 -3,3 14 8 46 25 NW 20 0 -
11.12.2019 18:00:00 -2,4 -2,5 11 6 46 25 NW - 0 0,0
11.12.2019 17:00:00 -1,5 -1,7 13 7 46 25 NW 0,2 0 0,0
11.12.2019 16:00:00 - - - - - - - - - -
11.12.2019 15:00:00 - - - - - - - - - -
11.12.2019 14:00:00 -1,1 -1,2 15 8 55 30 NW 0,7 0 0,0
11.12.2019 13:00:00 -1,1 -1,2 14 7 54 29 NNW 0,6 0 -
11.12.2019 12:00:00 -0,4 -0,5 19 10 49 26 N 0,8 0 0,6
11.12.2019 11:00:00 -0,1 -0,3 16 9 54 29 ESE 0,1 0 2,0
11.12.2019 10:00:00 0,9 0,6 14 8 62 33 SSW 0,4 0 0,4
11.12.2019 09:00:00 0,8 0,2 11 6 48 26 NW 6 0 0,0
11.12.2019 08:00:00 3,1 -1,2 20 11 56 31 NNW 12 0 0,0
11.12.2019 07:00:00 2,9 -6,4 13 7 55 30 NW 20 0 -
11.12.2019 06:00:00 3,6 -5,4 9 5 50 27 E 20 0 0,0
11.12.2019 05:00:00 3,3 -15,8 10 6 37 20 NNE 20 0 0,0
11.12.2019 04:00:00 3,1 -13,9 8 5 32 17 WNW 20 0 0,0
11.12.2019 03:00:00 3,5 -12,2 9 5 33 18 ESE 20 0 0,0
11.12.2019 02:00:00 4,1 -9,9 10 5 29 15 E 20 0 0,0
11.12.2019 01:00:00 4,1 -6,7 12 7 27 14 SE 20 0 -
11.12.2019 00:00:00 4,3 -6,7 16 8 29 15 SSW 20 0 0,0
10.12.2019 23:00:00 2,6 -10,8 14 7 24 13 S 20 0 0,0
10.12.2019 22:00:00 3,5 -12,2 14 8 31 17 SSE 20 0 0,0
10.12.2019 21:00:00 4,2 -13,9 14 8 24 13 S 20 0 0,0
10.12.2019 20:00:00 4,2 -15,8 14 8 24 13 SSW 20 0 0,0
10.12.2019 19:00:00 5,6 -16,5 10 5 29 15 S 20 0 -
10.12.2019 18:00:00 5,9 -16,5 13 7 23 12 SSW 20 0 0,0
10.12.2019 17:00:00 4,6 -11,7 7 4 20 11 SW 20 0 0,0
10.12.2019 16:00:00 5,4 -13,3 10 5 20 11 S 20 41 0,0
10.12.2019 15:00:00 9,0 -11,7 6 3 16 9 SW 20 60 0,0
10.12.2019 14:00:00 8,4 -11,2 8 4 14 7 W 20 60 0,0
10.12.2019 13:00:00 8,5 -11,7 6 4 13 7 SSW 20 60 -
10.12.2019 12:00:00 8,0 -9,9 3 2 9 5 NNW 20 16 0,0
10.12.2019 11:00:00 3,1 -12,2 6 3 9 5 SSW 20 0 0,0
10.12.2019 10:00:00 3,4 -13,3 4 2 14 7 SSW 20 0 0,0
10.12.2019 09:00:00 3,0 -14,5 9 5 19 11 S 20 0 0,0
10.12.2019 08:00:00 2,6 -14,5 10 6 17 9 SSE 20 0 0,0
10.12.2019 07:00:00 2,9 -16,5 7 4 18 10 ESE 20 0 -
10.12.2019 06:00:00 1,6 -15,1 7 4 15 8 ESE 20 0 0,0
10.12.2019 05:00:00 3,2 -15,8 10 6 22 12 ESE 20 0 0,0
10.12.2019 04:00:00 0,4 -10,3 8 4 21 12 SSE 20 0 0,0
10.12.2019 03:00:00 1,1 -10,3 8 5 25 14 SE 20 0 0,0
10.12.2019 02:00:00 1,7 -8,2 7 4 34 19 ESE 20 0 0,0
10.12.2019 01:00:00 0,7 -6,4 10 5 22 12 S 20 0 -
10.12.2019 00:00:00 -0,9 -2,0 5 3 21 11 ESE 18 0 0,0
09.12.2019 23:00:00 -1,3 -2,2 7 4 18 10 S 20 0 0,0
09.12.2019 22:00:00 -1,2 -2,0 3 2 10 5 ENE 13 0 0,0
09.12.2019 21:00:00 -0,7 -2,2 4 2 20 11 NE 20 0 0,0
09.12.2019 20:00:00 0,2 -3,3 11 6 21 11 S 20 0 0,0
09.12.2019 19:00:00 0,0 -4,8 6 4 16 9 SSE 20 0 -
09.12.2019 18:00:00 0,3 -5,4 5 3 15 8 SE 20 0 0,0

tt = temperature
td = dewpoint
ff = wind speed
fx = gusts
dd = wind direction
vv = visibility
sd = sunshine duration
rr = precipitation

Next stations